createdAt,value
2023-01-27T00:02:16.727Z,100.00
2023-01-27T00:04:45.059Z,100.00
2023-01-27T00:07:13.284Z,100.00
2023-01-27T00:09:42.598Z,100.00
2023-01-27T00:12:38.131Z,100.00
2023-01-27T00:15:07.617Z,100.00
2023-01-27T00:17:37.532Z,100.00
2023-01-27T00:20:07.274Z,100.00
2023-01-27T00:22:53.123Z,100.00
2023-01-27T00:25:21.596Z,100.00
2023-01-27T00:27:49.885Z,100.00
2023-01-27T00:30:18.512Z,100.00
2023-01-27T00:33:05.651Z,100.00
2023-01-27T00:35:34.627Z,100.00
2023-01-27T00:38:02.908Z,100.00
2023-01-27T00:40:31.225Z,100.00
2023-01-27T00:42:59.529Z,100.00
2023-01-27T00:45:45.511Z,98.90
2023-01-27T00:48:15.176Z,97.51
2023-01-27T00:50:43.516Z,95.50
2023-01-27T00:53:11.829Z,99.13
2023-01-27T00:55:40.219Z,97.02
2023-01-27T00:58:08.795Z,99.92
2023-01-27T01:00:37.067Z,96.67
2023-01-27T01:03:05.427Z,93.98
2023-01-27T01:05:35.197Z,93.47
2023-01-27T01:08:03.560Z,94.25
2023-01-27T01:10:31.908Z,94.35
2023-01-27T01:13:00.270Z,94.99
2023-01-27T01:15:28.498Z,95.78
2023-01-27T01:17:56.808Z,92.07
2023-01-27T01:20:25.172Z,97.69
2023-01-27T01:22:54.872Z,97.23
2023-01-27T01:25:23.230Z,100.00
2023-01-27T01:27:51.599Z,100.00
2023-01-27T01:30:21.524Z,100.00
2023-01-27T01:32:49.855Z,100.00
2023-01-27T01:35:18.109Z,100.00
2023-01-27T01:37:46.447Z,100.00
2023-01-27T01:40:16.420Z,100.00
2023-01-27T01:42:51.836Z,100.00
2023-01-27T01:45:53.882Z,100.00
2023-01-27T01:48:35.039Z,100.00
2023-01-27T01:51:08.433Z,100.00
2023-01-27T01:53:38.566Z,100.00
2023-01-27T01:56:12.494Z,100.00
2023-01-27T02:01:16.124Z,100.00
2023-01-27T02:03:47.985Z,100.00
2023-01-27T02:06:16.468Z,100.00
2023-01-27T02:08:46.813Z,100.00
2023-01-27T02:11:17.049Z,100.00
2023-01-27T02:13:45.661Z,100.00
2023-01-27T02:16:14.337Z,100.00
2023-01-27T02:18:42.966Z,100.00
2023-01-27T02:21:11.614Z,100.00
2023-01-27T02:23:51.569Z,100.00
2023-01-27T02:26:23.118Z,100.00
2023-01-27T02:28:56.219Z,100.00
2023-01-27T02:31:25.120Z,100.00
2023-01-27T02:33:55.156Z,100.00
2023-01-27T02:36:23.512Z,100.00
2023-01-27T02:38:53.987Z,100.00
2023-01-27T02:41:27.153Z,100.00
2023-01-27T02:43:55.830Z,100.00
2023-01-27T02:46:24.350Z,100.00
2023-01-27T02:48:52.762Z,100.00
2023-01-27T02:51:21.207Z,100.00
2023-01-27T02:53:49.565Z,100.00
2023-01-27T02:56:17.944Z,100.00
2023-01-27T02:58:47.675Z,100.00
2023-01-27T03:01:16.097Z,100.00
2023-01-27T03:03:47.373Z,100.00
2023-01-27T03:06:19.155Z,100.00
2023-01-27T03:08:47.455Z,100.00
2023-01-27T03:11:35.771Z,100.00
2023-01-27T03:14:05.646Z,100.00
2023-01-27T03:16:51.709Z,100.00
2023-01-27T03:19:20.394Z,100.00
2023-01-27T03:21:51.277Z,100.00
2023-01-27T03:24:19.715Z,100.00
2023-01-27T03:26:48.012Z,100.00
2023-01-27T03:29:35.735Z,100.00
2023-01-27T03:32:04.609Z,100.00
2023-01-27T03:34:32.924Z,100.00
2023-01-27T03:37:18.776Z,100.00
2023-01-27T03:40:04.943Z,100.00
2023-01-27T03:42:50.744Z,100.00
2023-01-27T03:45:38.108Z,100.00
2023-01-27T03:48:06.761Z,100.00
2023-01-27T03:50:38.292Z,100.00
2023-01-27T03:53:07.151Z,100.00
2023-01-27T03:55:37.027Z,100.00
2023-01-27T03:58:18.150Z,100.00
2023-01-27T04:00:50.817Z,100.00
2023-01-27T04:03:36.713Z,100.00
2023-01-27T04:06:23.176Z,100.00
2023-01-27T04:08:51.559Z,100.00
2023-01-27T04:11:37.562Z,100.00
2023-01-27T04:14:07.123Z,100.00
2023-01-27T04:16:37.724Z,100.00
2023-01-27T04:19:06.252Z,100.00
2023-01-27T04:21:34.715Z,100.00
2023-01-27T04:24:03.820Z,100.00
2023-01-27T04:26:34.588Z,100.00
2023-01-27T04:29:03.628Z,100.00
2023-01-27T04:31:32.823Z,100.00
2023-01-27T04:34:02.668Z,100.00
2023-01-27T04:36:30.930Z,100.00
2023-01-27T04:38:59.254Z,100.00
2023-01-27T04:41:28.024Z,100.00
2023-01-27T04:43:56.412Z,100.00
2023-01-27T04:46:24.693Z,100.00
2023-01-27T04:48:53.028Z,100.00
2023-01-27T04:51:22.636Z,100.00
2023-01-27T04:53:50.907Z,100.00
2023-01-27T04:56:24.579Z,100.00
2023-01-27T04:58:53.016Z,100.00
2023-01-27T05:01:21.572Z,100.00
2023-01-27T05:03:50.217Z,100.00
2023-01-27T05:06:18.483Z,100.00
2023-01-27T05:08:48.321Z,100.00
2023-01-27T05:11:16.954Z,100.00
2023-01-27T05:13:45.558Z,100.00
2023-01-27T05:16:15.736Z,100.00
2023-01-27T05:18:44.867Z,100.00
2023-01-27T05:21:14.506Z,100.00
2023-01-27T05:23:42.815Z,100.00
2023-01-27T05:26:14.203Z,100.00
2023-01-27T05:28:44.032Z,100.00
2023-01-27T05:31:14.178Z,100.00
2023-01-27T05:33:43.714Z,100.00
2023-01-27T05:36:13.457Z,100.00
2023-01-27T05:38:42.173Z,100.00
2023-01-27T05:41:13.147Z,100.00
2023-01-27T05:43:43.653Z,100.00
2023-01-27T05:46:13.479Z,100.00
2023-01-27T05:48:43.479Z,100.00
2023-01-27T05:51:14.682Z,100.00
2023-01-27T05:53:43.604Z,100.00
2023-01-27T05:56:16.996Z,100.00
2023-01-27T05:58:45.573Z,100.00
2023-01-27T06:01:15.439Z,100.00
2023-01-27T06:03:44.155Z,100.00
2023-01-27T06:06:13.587Z,100.00
2023-01-27T06:08:42.324Z,100.00
2023-01-27T06:11:10.927Z,100.00
2023-01-27T06:13:40.643Z,100.00
2023-01-27T06:16:10.866Z,100.00
2023-01-27T06:18:39.989Z,100.00
2023-01-27T06:21:09.791Z,100.00
2023-01-27T06:23:38.764Z,100.00
2023-01-27T06:26:09.353Z,100.00
2023-01-27T06:28:37.471Z,100.00
2023-01-27T06:31:08.040Z,100.00
2023-01-27T06:33:36.200Z,100.00
2023-01-27T06:36:06.024Z,100.00
2023-01-27T06:38:34.312Z,100.00
2023-01-27T06:41:02.855Z,100.00
2023-01-27T06:43:31.168Z,100.00
2023-01-27T06:45:59.555Z,100.00
2023-01-27T06:48:29.790Z,100.00
2023-01-27T06:50:58.530Z,100.00
2023-01-27T06:53:26.888Z,100.00
2023-01-27T06:55:58.572Z,100.00
2023-01-27T06:58:26.822Z,100.00
2023-01-27T07:00:55.156Z,100.00
2023-01-27T07:03:23.421Z,100.00
2023-01-27T07:05:54.050Z,100.00
2023-01-27T07:08:22.111Z,100.00
2023-01-27T07:10:50.302Z,100.00
2023-01-27T07:13:18.839Z,100.00
2023-01-27T07:15:47.633Z,100.00
2023-01-27T07:18:15.883Z,100.00
2023-01-27T07:20:44.792Z,100.00
2023-01-27T07:23:14.484Z,100.00
2023-01-27T07:25:44.773Z,100.00
2023-01-27T07:28:13.136Z,100.00
2023-01-27T07:30:41.463Z,100.00
2023-01-27T07:33:11.224Z,100.00
2023-01-27T07:35:41.181Z,100.00
2023-01-27T07:38:09.859Z,100.00
2023-01-27T07:40:39.483Z,100.00
2023-01-27T07:43:07.767Z,100.00
2023-01-27T07:45:36.207Z,100.00
2023-01-27T07:48:06.237Z,100.00
2023-01-27T07:50:34.866Z,100.00
2023-01-27T07:53:04.167Z,100.00
2023-01-27T07:55:33.757Z,100.00
2023-01-27T07:58:04.702Z,100.00
2023-01-27T08:00:33.666Z,100.00
2023-01-27T08:03:02.529Z,100.00
2023-01-27T08:05:34.172Z,100.00
2023-01-27T08:08:04.643Z,100.00
2023-01-27T08:10:32.767Z,100.00
2023-01-27T08:13:00.984Z,100.00
2023-01-27T08:15:30.678Z,100.00
2023-01-27T08:17:59.957Z,100.00
2023-01-27T08:20:28.930Z,100.00
2023-01-27T08:22:57.323Z,100.00
2023-01-27T08:25:25.748Z,100.00
2023-01-27T08:27:55.076Z,100.00
2023-01-27T08:30:24.256Z,100.00
2023-01-27T08:32:53.963Z,100.00
2023-01-27T08:35:22.339Z,100.00
2023-01-27T08:37:51.665Z,95.00
2023-01-27T08:40:20.107Z,91.15
2023-01-27T08:42:51.085Z,90.48
2023-01-27T08:45:19.451Z,85.56
2023-01-27T08:47:47.750Z,85.20
2023-01-27T08:50:18.557Z,81.71
2023-01-27T08:52:46.836Z,82.95
2023-01-27T08:55:15.514Z,86.56
2023-01-27T08:57:43.769Z,90.14
2023-01-27T09:00:14.218Z,95.86
2023-01-27T09:02:42.593Z,100.00
2023-01-27T09:05:11.342Z,100.00
2023-01-27T09:07:41.395Z,100.00
2023-01-27T09:10:15.297Z,100.00
2023-01-27T09:12:44.586Z,100.00
2023-01-27T09:15:13.522Z,100.00
2023-01-27T09:17:42.106Z,100.00
2023-01-27T09:20:12.041Z,100.00
2023-01-27T09:22:42.814Z,100.00
2023-01-27T09:25:15.246Z,100.00
2023-01-27T09:27:43.616Z,100.00
2023-01-27T09:30:13.756Z,100.00
2023-01-27T09:32:42.643Z,100.00
2023-01-27T09:35:11.671Z,100.00
2023-01-27T09:37:43.793Z,100.00
2023-01-27T09:40:18.353Z,100.00
2023-01-27T09:42:55.709Z,100.00
2023-01-27T09:45:44.821Z,100.00
2023-01-27T09:48:33.814Z,98.18
2023-01-27T09:51:06.617Z,99.26
2023-01-27T09:54:04.127Z,97.13
2023-01-27T09:56:47.837Z,93.69
2023-01-27T09:59:27.756Z,90.80
2023-01-27T10:02:02.935Z,90.97
2023-01-27T10:04:47.607Z,89.43
2023-01-27T10:07:27.019Z,86.83
2023-01-27T10:10:07.474Z,89.72
2023-01-27T10:12:48.985Z,88.61
2023-01-27T10:15:26.835Z,89.47
2023-01-27T10:18:02.078Z,93.14
2023-01-27T10:20:35.695Z,93.86
2023-01-27T10:23:14.422Z,91.27
2023-01-27T10:25:54.410Z,89.21
2023-01-27T10:28:24.339Z,88.42
2023-01-27T10:30:57.175Z,95.45
2023-01-27T10:33:35.979Z,87.99
2023-01-27T10:36:07.912Z,84.85
2023-01-27T10:38:39.852Z,82.19
2023-01-27T10:41:19.143Z,79.67
2023-01-27T10:43:56.449Z,77.12
2023-01-27T10:46:32.054Z,81.39
2023-01-27T10:49:05.152Z,80.46
2023-01-27T10:51:36.548Z,80.81
2023-01-27T10:54:08.690Z,83.90
2023-01-27T10:56:42.707Z,82.87
2023-01-27T10:59:16.291Z,87.67
2023-01-27T11:01:47.898Z,84.43
2023-01-27T11:04:20.156Z,84.80
2023-01-27T11:06:49.142Z,85.33
2023-01-27T11:09:26.522Z,82.59
2023-01-27T11:11:59.280Z,79.83
2023-01-27T11:14:29.239Z,79.07
2023-01-27T11:17:02.019Z,79.83
2023-01-27T11:19:36.385Z,80.30
2023-01-27T11:22:09.080Z,82.07
2023-01-27T11:24:44.998Z,83.50
2023-01-27T11:27:23.565Z,82.49
2023-01-27T11:29:56.335Z,81.27
2023-01-27T11:32:34.866Z,84.40
2023-01-27T11:35:05.230Z,84.85
2023-01-27T11:37:36.267Z,84.26
2023-01-27T11:40:06.495Z,92.30
2023-01-27T11:42:36.435Z,89.10
2023-01-27T11:45:05.589Z,91.39
2023-01-27T11:47:38.397Z,95.18
2023-01-27T11:50:08.148Z,96.03
2023-01-27T11:52:36.435Z,99.83
2023-01-27T11:55:07.806Z,95.52
2023-01-27T11:57:42.824Z,94.49
2023-01-27T12:00:20.263Z,93.28
2023-01-27T12:02:55.182Z,92.54
2023-01-27T12:05:29.906Z,87.65
2023-01-27T12:08:00.753Z,88.59
2023-01-27T12:10:31.708Z,83.36
2023-01-27T12:13:03.203Z,78.39
2023-01-27T12:15:32.867Z,74.33
2023-01-27T12:18:03.134Z,76.72
2023-01-27T12:20:34.122Z,73.79
2023-01-27T12:23:06.093Z,77.92
2023-01-27T12:25:43.262Z,74.01
2023-01-27T12:28:22.654Z,71.17
2023-01-27T12:30:52.359Z,75.13
2023-01-27T12:33:25.073Z,73.72
2023-01-27T12:35:53.704Z,74.42
2023-01-27T12:38:23.972Z,75.49
2023-01-27T12:40:57.915Z,72.37
2023-01-27T12:43:27.701Z,73.53
2023-01-27T12:46:07.873Z,74.68
2023-01-27T12:48:46.091Z,72.20
2023-01-27T12:51:16.954Z,68.90
2023-01-27T12:53:45.283Z,69.62
2023-01-27T12:56:15.067Z,72.55
2023-01-27T12:58:46.114Z,70.86
2023-01-27T13:01:25.151Z,73.32
2023-01-27T13:03:56.658Z,73.30
2023-01-27T13:06:32.407Z,70.76
2023-01-27T13:09:01.506Z,69.64
2023-01-27T13:11:38.374Z,72.43
2023-01-27T13:14:10.695Z,76.61
2023-01-27T13:16:39.387Z,75.41
2023-01-27T13:19:17.600Z,74.02
2023-01-27T13:21:49.582Z,73.62
2023-01-27T13:24:23.482Z,74.06
2023-01-27T13:26:53.305Z,74.07
2023-01-27T13:29:27.233Z,72.39
2023-01-27T13:31:58.936Z,75.08
2023-01-27T13:34:34.541Z,73.48
2023-01-27T13:37:07.619Z,72.47
2023-01-27T13:39:46.507Z,74.78
2023-01-27T13:42:19.880Z,69.61
2023-01-27T13:44:52.878Z,70.26
2023-01-27T13:47:24.718Z,69.38
2023-01-27T13:49:56.925Z,72.38
2023-01-27T13:52:25.759Z,69.61
2023-01-27T13:54:54.415Z,70.32
2023-01-27T13:57:55.552Z,72.22
2023-01-27T14:00:28.538Z,72.91
2023-01-27T14:03:21.473Z,71.80
2023-01-27T14:05:59.363Z,71.28
2023-01-27T14:08:50.658Z,73.93
2023-01-27T14:11:25.601Z,69.70
2023-01-27T14:14:29.160Z,67.92
2023-01-27T14:17:17.718Z,70.89
2023-01-27T14:19:52.673Z,68.55
2023-01-27T14:22:28.012Z,68.25
2023-01-27T14:25:02.113Z,69.42
2023-01-27T14:27:33.369Z,72.47
2023-01-27T14:30:07.628Z,70.36
2023-01-27T14:32:42.963Z,71.65
2023-01-27T14:35:27.002Z,70.44
2023-01-27T14:38:05.713Z,72.67
2023-01-27T14:40:39.112Z,72.38
2023-01-27T14:43:15.096Z,72.18
2023-01-27T14:45:47.013Z,71.64
2023-01-27T14:48:26.419Z,73.40
2023-01-27T14:51:00.907Z,75.36
2023-01-27T14:53:41.133Z,73.09
2023-01-27T14:56:13.627Z,73.58
2023-01-27T14:58:47.914Z,73.74
2023-01-27T15:01:25.137Z,76.60
2023-01-27T15:04:28.527Z,78.31
2023-01-27T15:07:02.018Z,77.40
2023-01-27T15:09:42.057Z,75.92
2023-01-27T15:12:26.151Z,79.38
2023-01-27T15:15:18.156Z,81.60
2023-01-27T15:17:56.467Z,86.45
2023-01-27T15:20:40.345Z,86.00
2023-01-27T15:23:24.661Z,84.30
2023-01-27T15:25:54.629Z,88.84
2023-01-27T15:28:27.060Z,93.45
2023-01-27T15:31:10.772Z,97.23
2023-01-27T15:34:17.951Z,95.62
2023-01-27T15:37:04.469Z,100.00
2023-01-27T15:39:41.608Z,100.00
2023-01-27T15:42:12.899Z,99.69
2023-01-27T15:44:43.230Z,98.05
2023-01-27T15:47:13.949Z,100.00
2023-01-27T15:49:45.700Z,100.00
2023-01-27T15:52:26.377Z,100.00
2023-01-27T15:54:56.794Z,100.00
2023-01-27T15:57:28.595Z,100.00
2023-01-27T16:00:01.117Z,100.00
2023-01-27T16:02:31.141Z,100.00
2023-01-27T16:05:07.031Z,100.00
2023-01-27T16:07:37.581Z,100.00
2023-01-27T16:10:14.547Z,100.00
2023-01-27T16:12:48.343Z,100.00
2023-01-27T16:15:39.023Z,100.00
2023-01-27T16:18:22.478Z,100.00
2023-01-27T16:20:53.367Z,100.00
2023-01-27T16:23:30.984Z,100.00
2023-01-27T16:26:16.827Z,100.00
2023-01-27T16:28:50.399Z,100.00
2023-01-27T16:31:21.167Z,100.00
2023-01-27T16:33:53.212Z,100.00
2023-01-27T16:36:25.536Z,98.88
2023-01-27T16:38:54.196Z,100.00
2023-01-27T16:41:28.040Z,100.00
2023-01-27T16:44:01.146Z,100.00
2023-01-27T16:46:33.688Z,100.00
2023-01-27T16:49:04.801Z,99.74
2023-01-27T16:51:34.951Z,100.00
2023-01-27T16:54:03.597Z,100.00
2023-01-27T16:56:36.135Z,100.00
2023-01-27T16:59:06.179Z,100.00
2023-01-27T17:01:38.986Z,100.00
2023-01-27T17:04:19.378Z,98.25
2023-01-27T17:06:49.393Z,98.01
2023-01-27T17:09:22.879Z,96.88
2023-01-27T17:11:53.700Z,97.68
2023-01-27T17:14:31.663Z,97.96
2023-01-27T17:17:02.561Z,100.00
2023-01-27T17:19:31.509Z,100.00
2023-01-27T17:22:01.287Z,100.00
2023-01-27T17:24:31.625Z,100.00
2023-01-27T17:27:03.632Z,100.00
2023-01-27T17:29:34.644Z,100.00
2023-01-27T17:32:03.236Z,100.00
2023-01-27T17:34:31.642Z,100.00
2023-01-27T17:37:07.034Z,100.00
2023-01-27T17:39:36.039Z,100.00
2023-01-27T17:42:06.262Z,100.00
2023-01-27T17:44:34.678Z,100.00
2023-01-27T17:47:03.159Z,100.00
2023-01-27T17:49:31.996Z,100.00
2023-01-27T17:52:02.424Z,100.00
2023-01-27T17:54:33.389Z,100.00
2023-01-27T17:57:09.224Z,100.00
2023-01-27T17:59:39.768Z,100.00
2023-01-27T18:02:09.023Z,100.00
2023-01-27T18:04:41.003Z,100.00
2023-01-27T18:07:10.962Z,100.00
2023-01-27T18:09:45.125Z,100.00
2023-01-27T18:12:31.160Z,100.00
2023-01-27T18:14:59.564Z,100.00
2023-01-27T18:17:28.130Z,100.00
2023-01-27T18:19:57.535Z,100.00
2023-01-27T18:22:27.125Z,100.00
2023-01-27T18:24:56.860Z,100.00
2023-01-27T18:27:29.580Z,100.00
2023-01-27T18:30:02.790Z,100.00
2023-01-27T18:32:40.224Z,100.00
2023-01-27T18:35:25.327Z,100.00
2023-01-27T18:37:56.860Z,100.00
2023-01-27T18:40:30.417Z,100.00
2023-01-27T18:43:00.253Z,100.00
2023-01-27T18:45:28.896Z,100.00
2023-01-27T18:47:59.399Z,100.00
2023-01-27T18:50:27.813Z,100.00
2023-01-27T18:52:56.210Z,100.00
2023-01-27T18:55:26.687Z,100.00
2023-01-27T18:57:55.513Z,100.00
2023-01-27T19:00:26.782Z,100.00
2023-01-27T19:02:59.060Z,100.00
2023-01-27T19:05:28.431Z,100.00
2023-01-27T19:07:56.944Z,100.00
2023-01-27T19:10:28.314Z,100.00
2023-01-27T19:12:58.372Z,100.00
2023-01-27T19:15:30.049Z,100.00
2023-01-27T19:17:59.736Z,100.00
2023-01-27T19:20:29.850Z,100.00
2023-01-27T19:22:59.519Z,100.00
2023-01-27T19:25:30.634Z,100.00
2023-01-27T19:28:03.581Z,100.00
2023-01-27T19:30:36.280Z,100.00
2023-01-27T19:33:05.407Z,100.00
2023-01-27T19:35:33.639Z,100.00
2023-01-27T19:38:03.966Z,100.00
2023-01-27T19:40:32.946Z,100.00
2023-01-27T19:43:01.225Z,100.00
2023-01-27T19:45:29.609Z,100.00
2023-01-27T19:48:01.075Z,100.00
2023-01-27T19:50:30.689Z,100.00
2023-01-27T19:52:59.300Z,100.00
2023-01-27T19:55:27.651Z,100.00
2023-01-27T19:57:55.906Z,100.00
2023-01-27T20:00:27.936Z,100.00
2023-01-27T20:02:56.237Z,100.00
2023-01-27T20:05:27.440Z,100.00
2023-01-27T20:07:56.738Z,100.00
2023-01-27T20:10:26.633Z,100.00
2023-01-27T20:12:56.873Z,100.00
2023-01-27T20:15:25.951Z,100.00
2023-01-27T20:17:54.449Z,100.00
2023-01-27T20:20:23.208Z,100.00
2023-01-27T20:22:53.880Z,100.00
2023-01-27T20:25:24.732Z,100.00
2023-01-27T20:27:54.763Z,100.00
2023-01-27T20:30:25.515Z,100.00
2023-01-27T20:32:55.909Z,100.00
2023-01-27T20:35:24.950Z,100.00
2023-01-27T20:37:55.336Z,100.00
2023-01-27T20:40:25.377Z,100.00
2023-01-27T20:42:53.699Z,100.00
2023-01-27T20:45:22.492Z,100.00
2023-01-27T20:47:51.540Z,100.00
2023-01-27T20:50:20.100Z,100.00
2023-01-27T20:52:48.820Z,100.00
2023-01-27T20:55:19.645Z,100.00
2023-01-27T20:57:48.758Z,100.00
2023-01-27T21:00:19.265Z,100.00
2023-01-27T21:02:48.191Z,100.00
2023-01-27T21:05:16.860Z,100.00
2023-01-27T21:07:45.404Z,100.00
2023-01-27T21:10:13.678Z,100.00
2023-01-27T21:12:43.305Z,100.00
2023-01-27T21:15:12.566Z,100.00
2023-01-27T21:17:41.445Z,100.00
2023-01-27T21:20:10.987Z,100.00
2023-01-27T21:22:39.254Z,100.00
2023-01-27T21:25:08.116Z,100.00
2023-01-27T21:27:36.398Z,100.00
2023-01-27T21:30:07.059Z,100.00
2023-01-27T21:32:35.304Z,100.00
2023-01-27T21:35:03.593Z,100.00
2023-01-27T21:37:31.888Z,100.00
2023-01-27T21:40:00.164Z,100.00
2023-01-27T21:42:46.126Z,100.00
2023-01-27T21:45:16.584Z,100.00
2023-01-27T21:47:45.112Z,100.00
2023-01-27T21:50:14.953Z,100.00
2023-01-27T21:52:45.620Z,100.00
2023-01-27T21:55:14.982Z,100.00
2023-01-27T21:57:45.558Z,100.00
2023-01-27T22:00:17.130Z,100.00
2023-01-27T22:02:45.642Z,100.00
2023-01-27T22:05:14.267Z,100.00
2023-01-27T22:07:42.769Z,100.00
2023-01-27T22:10:15.534Z,100.00
2023-01-27T22:12:43.957Z,100.00
2023-01-27T22:15:15.967Z,100.00
2023-01-27T22:17:44.854Z,100.00
2023-01-27T22:20:14.206Z,100.00
2023-01-27T22:22:42.643Z,100.00
2023-01-27T22:25:11.667Z,100.00
2023-01-27T22:27:41.502Z,100.00
2023-01-27T22:30:11.055Z,100.00
2023-01-27T22:32:40.959Z,100.00
2023-01-27T22:35:10.149Z,100.00
2023-01-27T22:37:38.724Z,100.00
2023-01-27T22:40:08.814Z,100.00
2023-01-27T22:42:39.876Z,100.00
2023-01-27T22:45:09.689Z,100.00
2023-01-27T22:47:38.130Z,100.00
2023-01-27T22:50:09.065Z,100.00
2023-01-27T22:52:37.733Z,100.00
2023-01-27T22:55:06.635Z,100.00
2023-01-27T22:57:34.991Z,100.00
2023-01-27T23:00:03.636Z,100.00
2023-01-27T23:02:31.983Z,100.00
2023-01-27T23:05:00.470Z,100.00
2023-01-27T23:07:30.112Z,100.00
2023-01-27T23:09:58.409Z,100.00
2023-01-27T23:12:26.651Z,100.00
2023-01-27T23:14:54.893Z,100.00
2023-01-27T23:17:23.164Z,100.00
2023-01-27T23:19:51.405Z,100.00
2023-01-27T23:22:19.720Z,100.00
2023-01-27T23:24:49.304Z,100.00
2023-01-27T23:27:17.744Z,100.00
2023-01-27T23:29:45.986Z,100.00
2023-01-27T23:32:14.281Z,100.00
2023-01-27T23:34:42.534Z,100.00
2023-01-27T23:37:10.839Z,100.00
2023-01-27T23:39:39.068Z,100.00
2023-01-27T23:42:08.779Z,100.00
2023-01-27T23:44:37.022Z,100.00
2023-01-27T23:47:05.282Z,100.00
2023-01-27T23:49:33.561Z,100.00
2023-01-27T23:52:01.843Z,100.00
2023-01-27T23:54:30.128Z,100.00
2023-01-27T23:56:58.356Z,100.00
2023-01-27T23:59:28.028Z,100.00
